createdAt,value
2016-06-09T00:00:15.954Z,1013.67
2016-06-09T00:01:16.005Z,1013.65
2016-06-09T00:02:16.024Z,1013.65
2016-06-09T00:03:16.058Z,1013.69
2016-06-09T00:04:16.092Z,1013.7
2016-06-09T00:05:16.142Z,1013.68
2016-06-09T00:06:16.176Z,1013.67
2016-06-09T00:07:16.210Z,1013.64
2016-06-09T00:08:16.246Z,1013.62
2016-06-09T00:09:16.279Z,1013.6
2016-06-09T00:10:16.314Z,1013.64
2016-06-09T00:11:16.347Z,1013.59
2016-06-09T00:12:16.382Z,1013.59
2016-06-09T00:13:16.416Z,1013.64
2016-06-09T00:14:16.450Z,1013.62
2016-06-09T00:15:16.484Z,1013.6
2016-06-09T00:16:16.534Z,1013.6
2016-06-09T00:17:16.570Z,1013.58
2016-06-09T00:18:16.603Z,1013.63
2016-06-09T00:19:16.638Z,1013.62
2016-06-09T00:20:16.672Z,1013.64
2016-06-09T00:21:16.707Z,1013.63
2016-06-09T00:22:16.741Z,1013.63
2016-06-09T00:23:16.776Z,1013.62
2016-06-09T00:24:16.809Z,1013.58
2016-06-09T00:25:16.844Z,1013.58
2016-06-09T00:26:16.879Z,1013.56
2016-06-09T00:27:16.929Z,1013.58
2016-06-09T00:28:16.963Z,1013.63
2016-06-09T00:29:16.996Z,1013.61
2016-06-09T00:30:17.031Z,1013.58
2016-06-09T00:31:17.066Z,1013.6
2016-06-09T00:32:17.100Z,1013.61
2016-06-09T00:33:17.134Z,1013.57
2016-06-09T00:34:17.168Z,1013.59
2016-06-09T00:35:17.204Z,1013.61
2016-06-09T00:36:17.253Z,1013.59
2016-06-09T00:37:17.271Z,1013.59
2016-06-09T00:38:17.322Z,1013.61
2016-06-09T00:39:17.371Z,1013.6
2016-06-09T00:40:17.390Z,1013.57
2016-06-09T00:41:17.425Z,1013.58
2016-06-09T00:42:17.459Z,1013.59
2016-06-09T00:43:17.492Z,1013.59
2016-06-09T00:44:17.528Z,1013.61
2016-06-09T00:45:17.561Z,1013.6
2016-06-09T00:46:17.596Z,1013.59
2016-06-09T00:47:17.630Z,1013.62
2016-06-09T00:48:17.665Z,1013.6
2016-06-09T00:49:17.714Z,1013.63
2016-06-09T00:50:17.749Z,1013.64
2016-06-09T00:51:17.784Z,1013.6
2016-06-09T00:52:17.817Z,1013.63
2016-06-09T00:53:17.868Z,1013.62
2016-06-09T00:54:17.887Z,1013.64
2016-06-09T00:55:17.920Z,1013.63
2016-06-09T00:56:17.954Z,1013.6
2016-06-09T00:57:17.989Z,1013.63
2016-06-09T00:58:18.024Z,1013.63
2016-06-09T00:59:18.058Z,1013.61
2016-06-09T01:00:18.108Z,1013.6
2016-06-09T01:01:18.142Z,1013.58
2016-06-09T01:02:18.176Z,1013.64
2016-06-09T01:03:18.211Z,1013.6
2016-06-09T01:04:18.245Z,1013.62
2016-06-09T01:05:18.280Z,1013.62
2016-06-09T01:06:18.313Z,1013.61
2016-06-09T01:07:18.348Z,1013.64
2016-06-09T01:08:18.382Z,1013.63
2016-06-09T01:09:18.417Z,1013.66
2016-06-09T01:10:18.451Z,1013.63
2016-06-09T01:11:18.486Z,1013.62
2016-06-09T01:12:18.520Z,1013.59
2016-06-09T01:13:18.570Z,1013.61
2016-06-09T01:14:18.604Z,1013.62
2016-06-09T01:15:18.638Z,1013.61
2016-06-09T01:16:18.672Z,1013.65
2016-06-09T01:17:18.707Z,1013.6
2016-06-09T01:18:18.898Z,1013.62
2016-06-09T01:19:18.838Z,1013.59
2016-06-09T01:20:18.809Z,1013.59
2016-06-09T01:21:18.845Z,1013.55
2016-06-09T01:22:18.879Z,1013.59
2016-06-09T01:23:18.928Z,1013.55
2016-06-09T01:24:18.947Z,1013.52
2016-06-09T01:25:18.997Z,1013.56
2016-06-09T01:26:19.032Z,1013.57
2016-06-09T01:27:19.065Z,1013.59
2016-06-09T01:28:19.100Z,1013.58
2016-06-09T01:29:19.135Z,1013.54
2016-06-09T01:30:19.169Z,1013.55
2016-06-09T01:31:19.203Z,1013.53
2016-06-09T01:32:19.237Z,1013.58
2016-06-09T01:33:19.272Z,1013.57
2016-06-09T01:34:19.306Z,1013.57
2016-06-09T01:35:19.340Z,1013.53
2016-06-09T01:36:19.375Z,1013.56
2016-06-09T01:37:19.408Z,1013.59
2016-06-09T01:38:19.444Z,1013.59
2016-06-09T01:39:19.493Z,1013.6
2016-06-09T01:40:19.528Z,1013.57
2016-06-09T01:41:19.562Z,1013.59
2016-06-09T01:42:19.596Z,1013.61
2016-06-09T01:43:19.630Z,1013.59
2016-06-09T01:44:19.665Z,1013.66
2016-06-09T01:45:19.700Z,1013.63
2016-06-09T01:46:19.733Z,1013.63
2016-06-09T01:47:19.768Z,1013.67
2016-06-09T01:48:19.803Z,1013.63
2016-06-09T01:49:19.853Z,1013.59
2016-06-09T01:50:19.871Z,1013.61
2016-06-09T01:51:19.905Z,1013.62
2016-06-09T01:52:19.940Z,1013.62
2016-06-09T01:53:19.974Z,1013.59
2016-06-09T01:54:20.023Z,1013.57
2016-06-09T01:55:20.058Z,1013.58
2016-06-09T01:56:20.092Z,1013.56
2016-06-09T01:57:20.127Z,1013.57
2016-06-09T01:58:20.161Z,1013.56
2016-06-09T01:59:20.196Z,1013.56
2016-06-09T02:00:20.229Z,1013.53
2016-06-09T02:01:20.264Z,1013.53
2016-06-09T02:02:20.299Z,1013.59
2016-06-09T02:03:20.333Z,1013.54
2016-06-09T02:04:20.383Z,1013.53
2016-06-09T02:05:20.402Z,1013.53
2016-06-09T02:06:20.436Z,1013.56
2016-06-09T02:07:20.470Z,1013.59
2016-06-09T02:08:20.504Z,1013.58
2016-06-09T02:09:20.554Z,1013.6
2016-06-09T02:10:20.588Z,1013.56
2016-06-09T02:11:20.638Z,1013.6
2016-06-09T02:12:20.657Z,1013.58
2016-06-09T02:13:20.692Z,1013.59
2016-06-09T02:14:20.725Z,1013.58
2016-06-09T02:15:20.761Z,1013.57
2016-06-09T02:16:20.795Z,1013.6
2016-06-09T02:17:20.829Z,1013.56
2016-06-09T02:18:20.862Z,1013.57
2016-06-09T02:19:20.898Z,1013.6
2016-06-09T02:20:20.932Z,1013.58
2016-06-09T02:21:20.965Z,1013.6
2016-06-09T02:22:21.000Z,1013.6
2016-06-09T02:23:21.035Z,1013.61
2016-06-09T02:24:21.085Z,1013.61
2016-06-09T02:25:21.103Z,1013.63
2016-06-09T02:26:21.137Z,1013.62
2016-06-09T02:27:21.187Z,1013.63
2016-06-09T02:28:21.223Z,1013.64
2016-06-09T02:29:21.257Z,1013.65
2016-06-09T02:30:21.291Z,1013.65
2016-06-09T02:31:21.325Z,1013.63
2016-06-09T02:32:21.360Z,1013.58
2016-06-09T02:33:21.394Z,1013.62
2016-06-09T02:34:22.100Z,1013.63
2016-06-09T02:35:21.462Z,1013.67
2016-06-09T02:36:21.497Z,1013.64
2016-06-09T02:37:21.531Z,1013.65
2016-06-09T02:38:21.566Z,1013.6
2016-06-09T02:39:21.599Z,1013.62
2016-06-09T02:40:21.634Z,1013.63
2016-06-09T02:41:21.669Z,1013.63
2016-06-09T02:42:21.719Z,1013.61
2016-06-09T02:43:21.752Z,1013.67
2016-06-09T02:44:21.787Z,1013.68
2016-06-09T02:45:21.820Z,1013.64
2016-06-09T02:46:21.871Z,1013.62
2016-06-09T02:47:21.890Z,1013.61
2016-06-09T02:48:21.939Z,1013.58
2016-06-09T02:49:21.958Z,1013.59
2016-06-09T02:50:22.008Z,1013.62
2016-06-09T02:51:22.027Z,1013.6
2016-06-09T02:52:22.061Z,1013.57
2016-06-09T02:53:22.095Z,1013.59
2016-06-09T02:54:22.130Z,1013.62
2016-06-09T02:55:22.165Z,1013.63
2016-06-09T02:56:22.198Z,1013.62
2016-06-09T02:57:22.232Z,1013.63
2016-06-09T02:58:22.268Z,1013.62
2016-06-09T02:59:22.318Z,1013.62
2016-06-09T03:00:22.335Z,1013.68
2016-06-09T03:01:22.386Z,1013.69
2016-06-09T03:02:22.420Z,1013.67
2016-06-09T03:03:22.455Z,1013.66
2016-06-09T03:04:22.489Z,1013.67
2016-06-09T03:05:22.524Z,1013.66
2016-06-09T03:06:22.557Z,1013.64
2016-06-09T03:07:22.592Z,1013.66
2016-06-09T03:08:22.627Z,1013.64
2016-06-09T03:09:22.661Z,1013.59
2016-06-09T03:10:22.694Z,1013.67
2016-06-09T03:11:22.730Z,1013.67
2016-06-09T03:12:22.764Z,1013.67
2016-06-09T03:13:22.814Z,1013.66
2016-06-09T03:14:22.847Z,1013.64
2016-06-09T03:15:22.882Z,1013.65
2016-06-09T03:16:22.916Z,1013.66
2016-06-09T03:17:22.951Z,1013.66
2016-06-09T03:18:22.985Z,1013.67
2016-06-09T03:19:23.019Z,1013.66
2016-06-09T03:20:23.053Z,1013.61
2016-06-09T03:21:23.088Z,1013.6
2016-06-09T03:22:23.122Z,1013.57
2016-06-09T03:23:23.156Z,1013.58
2016-06-09T03:24:23.190Z,1013.6
2016-06-09T03:25:23.226Z,1013.57
2016-06-09T03:26:23.260Z,1013.62
2016-06-09T03:27:23.293Z,1013.65
2016-06-09T03:28:23.328Z,1013.72
2016-06-09T03:29:23.378Z,1013.64
2016-06-09T03:30:23.413Z,1013.67
2016-06-09T03:31:23.447Z,1013.64
2016-06-09T03:32:23.482Z,1013.64
2016-06-09T03:33:23.515Z,1013.65
2016-06-09T03:34:23.550Z,1013.68
2016-06-09T03:35:23.585Z,1013.66
2016-06-09T03:36:23.619Z,1013.65
2016-06-09T03:37:23.652Z,1013.67
2016-06-09T03:38:23.688Z,1013.71
2016-06-09T03:39:23.722Z,1013.7
2016-06-09T03:40:23.756Z,1013.71
2016-06-09T03:41:23.789Z,1013.71
2016-06-09T03:42:23.825Z,1013.74
2016-06-09T03:43:23.859Z,1013.75
2016-06-09T03:44:23.893Z,1013.74
2016-06-09T03:45:23.927Z,1013.77
2016-06-09T03:46:23.977Z,1013.75
2016-06-09T03:47:24.011Z,1013.79
2016-06-09T03:48:24.046Z,1013.76
2016-06-09T03:49:24.081Z,1013.74
2016-06-09T03:50:24.114Z,1013.74
2016-06-09T03:51:24.148Z,1013.76
2016-06-09T03:52:24.184Z,1013.78
2016-06-09T03:53:24.218Z,1013.8
2016-06-09T03:54:24.251Z,1013.79
2016-06-09T03:55:24.286Z,1013.76
2016-06-09T03:56:24.321Z,1013.77
2016-06-09T03:57:24.355Z,1013.71
2016-06-09T03:58:24.389Z,1013.72
2016-06-09T03:59:24.439Z,1013.68
2016-06-09T04:00:24.458Z,1013.68
2016-06-09T04:01:24.508Z,1013.65
2016-06-09T04:02:24.543Z,1013.65
2016-06-09T04:03:24.577Z,1013.64
2016-06-09T04:04:24.610Z,1013.67
2016-06-09T04:05:24.646Z,1013.62
2016-06-09T04:06:24.680Z,1013.65
2016-06-09T04:07:24.714Z,1013.66
2016-06-09T04:08:24.747Z,1013.63
2016-06-09T04:09:24.783Z,1013.63
2016-06-09T04:10:24.817Z,1013.61
2016-06-09T04:11:24.851Z,1013.62
2016-06-09T04:12:24.885Z,1013.58
2016-06-09T04:13:24.920Z,1013.58
2016-06-09T04:14:24.954Z,1013.56
2016-06-09T04:15:24.989Z,1013.58
2016-06-09T04:16:25.039Z,1013.59
2016-06-09T04:17:25.072Z,1013.53
2016-06-09T04:18:25.106Z,1013.59
2016-06-09T04:19:25.501Z,1013.54
2016-06-09T04:20:25.176Z,1013.52
2016-06-09T04:21:25.209Z,1013.49
2016-06-09T04:22:25.244Z,1013.51
2016-06-09T04:23:25.294Z,1013.51
2016-06-09T04:24:25.313Z,1013.51
2016-06-09T04:25:25.347Z,1013.49
2016-06-09T04:26:25.381Z,1013.45
2016-06-09T04:27:25.416Z,1013.44
2016-06-09T04:28:25.466Z,1013.43
2016-06-09T04:29:25.501Z,1013.42
2016-06-09T04:30:25.535Z,1013.39
2016-06-09T04:31:25.569Z,1013.4
2016-06-09T04:32:25.603Z,1013.41
2016-06-09T04:33:25.638Z,1013.4
2016-06-09T04:34:25.672Z,1013.41
2016-06-09T04:35:25.705Z,1013.39
2016-06-09T04:36:25.741Z,1013.44
2016-06-09T04:37:25.775Z,1013.45
2016-06-09T04:38:25.809Z,1013.45
2016-06-09T04:39:25.859Z,1013.43
2016-06-09T04:40:25.893Z,1013.48
2016-06-09T04:41:25.927Z,1013.45
2016-06-09T04:42:25.962Z,1013.46
2016-06-09T04:43:25.997Z,1013.42
2016-06-09T04:44:26.030Z,1013.41
2016-06-09T04:45:26.064Z,1013.46
2016-06-09T04:46:26.100Z,1013.46
2016-06-09T04:47:26.134Z,1013.46
2016-06-09T04:48:26.167Z,1013.46
2016-06-09T04:49:26.202Z,1013.46
2016-06-09T04:50:26.252Z,1013.45
2016-06-09T04:51:26.287Z,1013.43
2016-06-09T04:52:26.321Z,1013.41
2016-06-09T04:53:26.355Z,1013.48
2016-06-09T04:54:26.389Z,1013.42
2016-06-09T04:55:26.424Z,1013.41
2016-06-09T04:56:26.473Z,1013.42
2016-06-09T04:57:26.509Z,1013.42
2016-06-09T04:58:26.543Z,1013.46
2016-06-09T04:59:26.576Z,1013.41
2016-06-09T05:00:26.611Z,1013.41
2016-06-09T05:01:26.646Z,1013.45
2016-06-09T05:02:26.680Z,1013.44
2016-06-09T05:03:26.745Z,1013.44
2016-06-09T05:04:26.841Z,1013.4
2016-06-09T05:05:26.783Z,1013.45
2016-06-09T05:06:26.817Z,1013.42
2016-06-09T05:07:26.867Z,1013.41
2016-06-09T05:08:26.902Z,1013.38
2016-06-09T05:09:26.935Z,1013.37
2016-06-09T05:10:26.970Z,1013.43
2016-06-09T05:11:27.005Z,1013.43
2016-06-09T05:12:27.039Z,1013.45
2016-06-09T05:13:27.072Z,1013.38
2016-06-09T05:14:27.108Z,1013.36
2016-06-09T05:15:27.157Z,1013.37
2016-06-09T05:16:27.192Z,1013.29
2016-06-09T05:17:27.226Z,1013.34
2016-06-09T05:18:27.291Z,1013.33
2016-06-09T05:19:27.294Z,1013.33
2016-06-09T05:20:27.719Z,1013.33
2016-06-09T05:21:27.363Z,1013.35
2016-06-09T05:22:27.413Z,1013.36
2016-06-09T05:23:27.431Z,1013.35
2016-06-09T05:24:27.481Z,1013.35
2016-06-09T05:25:27.517Z,1013.36
2016-06-09T05:26:27.551Z,1013.34
2016-06-09T05:27:27.585Z,1013.37
2016-06-09T05:28:27.618Z,1013.3
2016-06-09T05:29:27.654Z,1013.35
2016-06-09T05:30:27.688Z,1013.34
2016-06-09T05:31:27.722Z,1013.39
2016-06-09T05:32:27.756Z,1013.36
2016-06-09T05:33:27.806Z,1013.34
2016-06-09T05:34:27.840Z,1013.36
2016-06-09T05:35:27.891Z,1013.41
2016-06-09T05:36:27.909Z,1013.41
2016-06-09T05:37:27.943Z,1013.42
2016-06-09T05:38:27.977Z,1013.39
2016-06-09T05:39:28.013Z,1013.41
2016-06-09T05:40:28.063Z,1013.41
2016-06-09T05:41:28.081Z,1013.4
2016-06-09T05:42:28.147Z,1013.37
2016-06-09T05:43:28.164Z,1013.4
2016-06-09T05:44:28.200Z,1013.37
2016-06-09T05:45:28.233Z,1013.37
2016-06-09T05:46:28.268Z,1013.35
2016-06-09T05:47:28.302Z,1013.35
2016-06-09T05:48:28.337Z,1013.36
2016-06-09T05:49:28.386Z,1013.34
2016-06-09T05:50:29.046Z,1013.37
2016-06-09T05:51:28.455Z,1013.39
2016-06-09T05:52:28.489Z,1013.39
2016-06-09T05:53:28.523Z,1013.4
2016-06-09T05:54:28.559Z,1013.38
2016-06-09T05:55:28.593Z,1013.42
2016-06-09T05:56:28.626Z,1013.4
2016-06-09T05:57:28.661Z,1013.42
2016-06-09T05:58:28.696Z,1013.46
2016-06-09T05:59:28.730Z,1013.48
2016-06-09T06:00:28.764Z,1013.45
2016-06-09T06:01:28.815Z,1013.45
2016-06-09T06:02:28.848Z,1013.46
2016-06-09T06:03:28.884Z,1013.44
2016-06-09T06:04:28.917Z,1013.47
2016-06-09T06:05:28.951Z,1013.46
2016-06-09T06:06:28.985Z,1013.46
2016-06-09T06:07:29.020Z,1013.44
2016-06-09T06:08:29.069Z,1013.47
2016-06-09T06:09:29.089Z,1013.48
2016-06-09T06:10:29.139Z,1013.44
2016-06-09T06:11:29.173Z,1013.45
2016-06-09T06:12:29.207Z,1013.47
2016-06-09T06:13:29.242Z,1013.46
2016-06-09T06:14:29.276Z,1013.47
2016-06-09T06:15:29.310Z,1013.48
2016-06-09T06:16:29.344Z,1013.47
2016-06-09T06:17:29.379Z,1013.48
2016-06-09T06:18:29.414Z,1013.47
2016-06-09T06:19:29.464Z,1013.48
2016-06-09T06:20:29.498Z,1013.5
2016-06-09T06:21:29.532Z,1013.46
2016-06-09T06:22:29.567Z,1013.51
2016-06-09T06:23:29.913Z,1013.47
2016-06-09T06:24:29.635Z,1013.48
2016-06-09T06:25:29.669Z,1013.49
2016-06-09T06:26:29.704Z,1013.47
2016-06-09T06:27:29.738Z,1013.48
2016-06-09T06:28:29.788Z,1013.47
2016-06-09T06:29:29.823Z,1013.49
2016-06-09T06:30:29.856Z,1013.5
2016-06-09T06:31:29.890Z,1013.53
2016-06-09T06:32:29.925Z,1013.47
2016-06-09T06:33:29.960Z,1013.48
2016-06-09T06:34:30.087Z,1013.5
2016-06-09T06:35:30.028Z,1013.5
2016-06-09T06:36:30.063Z,1013.46
2016-06-09T06:37:30.113Z,1013.45
2016-06-09T06:38:30.147Z,1013.45
2016-06-09T06:39:30.197Z,1013.43
2016-06-09T06:40:30.215Z,1013.4
2016-06-09T06:41:30.250Z,1013.36
2016-06-09T06:42:30.284Z,1013.31
2016-06-09T06:43:31.069Z,1013.27
2016-06-09T06:44:30.368Z,1013.26
2016-06-09T06:45:30.402Z,1013.29
2016-06-09T06:46:30.436Z,1013.26
2016-06-09T06:47:30.472Z,1013.27
2016-06-09T06:48:30.506Z,1013.26
2016-06-09T06:49:30.556Z,1013.27
2016-06-09T06:50:30.590Z,1013.29
2016-06-09T06:51:30.623Z,1013.3
2016-06-09T06:52:30.659Z,1013.26
2016-06-09T06:53:31.177Z,1013.29
2016-06-09T06:54:30.743Z,1013.32
2016-06-09T06:55:30.761Z,1013.29
2016-06-09T06:56:30.811Z,1013.31
2016-06-09T06:57:30.845Z,1013.3
2016-06-09T06:58:31.896Z,1013.26
2016-06-09T06:59:30.915Z,1013.31
2016-06-09T07:00:30.948Z,1013.32
2016-06-09T07:01:30.982Z,1013.35
2016-06-09T07:02:31.033Z,1013.33
2016-06-09T07:03:31.068Z,1013.33
2016-06-09T07:04:31.101Z,1013.34
2016-06-09T07:05:31.152Z,1013.32
2016-06-09T07:06:31.170Z,1013.32
2016-06-09T07:07:31.220Z,1013.33
2016-06-09T07:08:31.254Z,1013.27
2016-06-09T07:09:31.289Z,1013.27
2016-06-09T07:10:31.324Z,1013.32
2016-06-09T07:11:31.357Z,1013.26
2016-06-09T07:12:31.391Z,1013.29
2016-06-09T07:13:31.426Z,1013.32
2016-06-09T07:14:31.477Z,1013.33
2016-06-09T07:15:31.510Z,1013.35
2016-06-09T07:16:31.545Z,1013.35
2016-06-09T07:17:31.578Z,1013.4
2016-06-09T07:18:31.629Z,1013.36
2016-06-09T07:19:31.663Z,1013.36
2016-06-09T07:20:31.791Z,1013.37
2016-06-09T07:21:31.732Z,1013.37
2016-06-09T07:22:31.766Z,1013.35
2016-06-09T07:23:31.800Z,1013.35
2016-06-09T07:24:31.835Z,1013.3
2016-06-09T07:25:31.870Z,1013.37
2016-06-09T07:26:31.920Z,1013.33
2016-06-09T07:27:31.954Z,1013.33
2016-06-09T07:28:31.987Z,1013.34
2016-06-09T07:29:32.023Z,1013.36
2016-06-09T07:30:32.057Z,1013.35
2016-06-09T07:31:32.091Z,1013.32
2016-06-09T07:32:32.125Z,1013.33
2016-06-09T07:33:32.174Z,1013.29
2016-06-09T07:34:32.209Z,1013.34
2016-06-09T07:35:32.494Z,1013.27
2016-06-09T07:36:32.278Z,1013.29
2016-06-09T07:37:32.312Z,1013.25
2016-06-09T07:38:32.346Z,1013.29
2016-06-09T07:39:32.381Z,1013.28
2016-06-09T07:40:32.415Z,1013.27
2016-06-09T07:41:32.465Z,1013.3
2016-06-09T07:42:32.500Z,1013.26
2016-06-09T07:43:33.377Z,1013.29
2016-06-09T07:44:32.569Z,1013.31
2016-06-09T07:45:32.603Z,1013.25
2016-06-09T07:46:32.637Z,1013.25
2016-06-09T07:47:32.687Z,1013.24
2016-06-09T07:48:32.721Z,1013.23
2016-06-09T07:49:32.755Z,1013.18
2016-06-09T07:50:33.337Z,1013.16
2016-06-09T07:51:32.825Z,1013.16
2016-06-09T07:52:32.858Z,1013.19
2016-06-09T07:53:32.908Z,1013.15
2016-06-09T07:54:32.927Z,1013.11
2016-06-09T07:55:32.978Z,1013.18
2016-06-09T07:56:33.012Z,1013.17
2016-06-09T07:57:33.046Z,1013.18
2016-06-09T07:58:33.079Z,1013.2
2016-06-09T07:59:33.130Z,1013.15
2016-06-09T08:00:33.164Z,1013.19
2016-06-09T08:01:33.199Z,1013.17
2016-06-09T08:02:33.233Z,1013.22
2016-06-09T08:03:33.267Z,1013.18
2016-06-09T08:04:33.301Z,1013.19
2016-06-09T08:05:33.368Z,1013.25
2016-06-09T08:06:33.386Z,1013.23
2016-06-09T08:07:33.421Z,1013.19
2016-06-09T08:08:35.033Z,1013.17
2016-06-09T08:09:33.488Z,1013.14
2016-06-09T08:10:33.539Z,1013.14
2016-06-09T08:11:33.573Z,1013.17
2016-06-09T08:12:33.607Z,1013.16
2016-06-09T08:13:34.720Z,1013.14
2016-06-09T08:14:33.675Z,1013.16
2016-06-09T08:15:33.710Z,1013.16
2016-06-09T08:16:33.760Z,1013.15
2016-06-09T08:17:33.795Z,1013.17
2016-06-09T08:18:33.829Z,1013.21
2016-06-09T08:19:33.864Z,1013.23
2016-06-09T08:20:33.975Z,1013.23
2016-06-09T08:21:33.948Z,1013.24
2016-06-09T08:22:33.981Z,1013.22
2016-06-09T08:23:34.017Z,1013.24
2016-06-09T08:24:34.053Z,1013.23
2016-06-09T08:25:34.145Z,1013.27
2016-06-09T08:26:34.222Z,1013.24
2016-06-09T08:27:34.298Z,1013.24
2016-06-09T08:28:34.377Z,1013.26
2016-06-09T08:29:34.452Z,1013.24
2016-06-09T08:30:34.517Z,1013.23
2016-06-09T08:31:34.567Z,1013.25
2016-06-09T08:32:34.616Z,1013.27
2016-06-09T08:33:34.665Z,1013.27
2016-06-09T08:34:34.730Z,1013.29
2016-06-09T08:35:34.771Z,1013.34
2016-06-09T08:36:34.811Z,1013.29
2016-06-09T08:37:34.850Z,1013.23
2016-06-09T08:38:34.889Z,1013.25
2016-06-09T08:39:34.944Z,1013.24
2016-06-09T08:40:34.980Z,1013.24
2016-06-09T08:41:35.018Z,1013.22
2016-06-09T08:42:35.054Z,1013.22
2016-06-09T08:43:35.153Z,1013.26
2016-06-09T08:44:35.141Z,1013.26
2016-06-09T08:45:35.176Z,1013.23
2016-06-09T08:46:35.212Z,1013.28
2016-06-09T08:47:35.247Z,1013.25
2016-06-09T08:48:35.298Z,1013.2
2016-06-09T08:49:35.333Z,1013.26
2016-06-09T08:50:35.367Z,1013.22
2016-06-09T08:51:35.401Z,1013.24
2016-06-09T08:52:35.452Z,1013.23
2016-06-09T08:53:35.472Z,1013.24
2016-06-09T08:54:35.522Z,1013.2
2016-06-09T08:55:35.557Z,1013.19
2016-06-09T08:56:35.590Z,1013.17
2016-06-09T08:57:35.626Z,1013.22
2016-06-09T08:58:35.722Z,1013.2
2016-06-09T08:59:35.709Z,1013.18
2016-06-09T09:00:35.743Z,1013.19
2016-06-09T09:01:35.777Z,1013.23
2016-06-09T09:02:35.827Z,1013.25
2016-06-09T09:03:36.549Z,1013.28
2016-06-09T09:04:35.928Z,1013.24
2016-06-09T09:05:35.931Z,1013.3
2016-06-09T09:06:35.965Z,1013.27
2016-06-09T09:07:36.015Z,1013.28
2016-06-09T09:08:36.049Z,1013.25
2016-06-09T09:09:36.083Z,1013.25
2016-06-09T09:10:36.119Z,1013.27
2016-06-09T09:11:36.152Z,1013.26
2016-06-09T09:12:36.187Z,1013.26
2016-06-09T09:13:36.221Z,1013.22
2016-06-09T09:14:36.271Z,1013.19
2016-06-09T09:15:36.305Z,1013.2
2016-06-09T09:16:36.340Z,1013.19
2016-06-09T09:17:36.374Z,1013.2
2016-06-09T09:18:37.924Z,1013.22
2016-06-09T09:19:36.458Z,1013.17
2016-06-09T09:20:36.492Z,1013.22
2016-06-09T09:21:36.527Z,1013.21
2016-06-09T09:22:36.561Z,1013.2
2016-06-09T09:23:36.595Z,1013.2
2016-06-09T09:24:36.645Z,1013.17
2016-06-09T09:25:36.679Z,1013.21
2016-06-09T09:26:36.714Z,1013.16
2016-06-09T09:27:36.749Z,1013.2
2016-06-09T09:28:36.782Z,1013.17
2016-06-09T09:29:36.816Z,1013.18
2016-06-09T09:30:36.867Z,1013.2
2016-06-09T09:31:36.900Z,1013.17
2016-06-09T09:32:36.935Z,1013.18
2016-06-09T09:33:36.970Z,1013.16
2016-06-09T09:34:37.004Z,1013.14
2016-06-09T09:35:37.648Z,1013.16
2016-06-09T09:36:37.088Z,1013.13
2016-06-09T09:37:37.124Z,1013.17
2016-06-09T09:38:37.157Z,1013.16
2016-06-09T09:39:37.191Z,1013.15
2016-06-09T09:40:37.241Z,1013.17
2016-06-09T09:41:37.276Z,1013.18
2016-06-09T09:42:37.325Z,1013.15
2016-06-09T09:43:37.345Z,1013.15
2016-06-09T09:44:37.379Z,1013.18
2016-06-09T09:45:37.413Z,1013.17
2016-06-09T09:46:37.447Z,1013.15
2016-06-09T09:47:37.496Z,1013.14
2016-06-09T09:48:37.532Z,1013.16
2016-06-09T09:49:37.566Z,1013.19
2016-06-09T09:50:37.617Z,1013.18
2016-06-09T09:51:37.635Z,1013.19
2016-06-09T09:52:37.684Z,1013.19
2016-06-09T09:53:37.718Z,1013.18
2016-06-09T09:54:37.754Z,1013.18
2016-06-09T09:55:37.788Z,1013.21
2016-06-09T09:56:37.837Z,1013.25
2016-06-09T09:57:37.872Z,1013.21
2016-06-09T09:58:37.905Z,1013.23
2016-06-09T09:59:37.941Z,1013.25
2016-06-09T10:00:37.975Z,1013.23
2016-06-09T10:01:38.025Z,1013.22
2016-06-09T10:02:38.043Z,1013.25
2016-06-09T10:03:38.093Z,1013.23
2016-06-09T10:04:38.127Z,1013.18
2016-06-09T10:05:38.787Z,1013.2
2016-06-09T10:06:38.196Z,1013.21
2016-06-09T10:07:38.230Z,1013.19
2016-06-09T10:08:38.265Z,1013.21
2016-06-09T10:09:38.314Z,1013.22
2016-06-09T10:10:38.350Z,1013.17
2016-06-09T10:11:38.384Z,1013.19
2016-06-09T10:12:38.418Z,1013.16
2016-06-09T10:13:38.468Z,1013.16
2016-06-09T10:14:38.502Z,1013.18
2016-06-09T10:15:38.536Z,1013.19
2016-06-09T10:16:38.571Z,1013.15
2016-06-09T10:17:38.621Z,1013.19
2016-06-09T10:18:38.655Z,1013.19
2016-06-09T10:19:38.689Z,1013.18
2016-06-09T10:20:38.724Z,1013.21
2016-06-09T10:21:39.195Z,1013.22
2016-06-09T10:22:38.808Z,1013.16
2016-06-09T10:23:38.843Z,1013.16
2016-06-09T10:24:38.876Z,1013.18
2016-06-09T10:25:38.910Z,1013.19
2016-06-09T10:26:38.945Z,1013.2
2016-06-09T10:27:38.995Z,1013.17
2016-06-09T10:28:39.030Z,1013.21
2016-06-09T10:29:39.064Z,1013.21
2016-06-09T10:30:39.099Z,1013.16
2016-06-09T10:31:39.132Z,1013.14
2016-06-09T10:32:39.167Z,1013.18
2016-06-09T10:33:39.216Z,1013.14
2016-06-09T10:34:39.251Z,1013.11
2016-06-09T10:35:39.286Z,1013.16
2016-06-09T10:36:39.319Z,1013.14
2016-06-09T10:37:39.353Z,1013.15
2016-06-09T10:38:39.403Z,1013.12
2016-06-09T10:39:39.439Z,1013.1
2016-06-09T10:40:39.473Z,1013.12
2016-06-09T10:41:39.507Z,1013.1
2016-06-09T10:42:39.557Z,1013.14
2016-06-09T10:43:39.591Z,1013.07
2016-06-09T10:44:39.625Z,1013.12
2016-06-09T10:45:39.661Z,1013.05
2016-06-09T10:46:39.694Z,1013.06
2016-06-09T10:47:39.728Z,1013.13
2016-06-09T10:48:39.779Z,1013.07
2016-06-09T10:49:39.812Z,1013.09
2016-06-09T10:50:39.848Z,1013.09
2016-06-09T10:51:39.882Z,1013.04
2016-06-09T10:52:39.932Z,1013.03
2016-06-09T10:53:39.966Z,1013.06
2016-06-09T10:54:39.999Z,1013.03
2016-06-09T10:55:40.034Z,1013.08
2016-06-09T10:56:40.069Z,1013.07
2016-06-09T10:57:40.119Z,1013.07
2016-06-09T10:58:40.153Z,1013.05
2016-06-09T10:59:40.188Z,1013.07
2016-06-09T11:00:40.221Z,1013.07
2016-06-09T11:01:40.272Z,1013.12
2016-06-09T11:02:40.305Z,1013.08
2016-06-09T11:03:40.341Z,1013.07
2016-06-09T11:04:40.375Z,1013.09
2016-06-09T11:05:40.408Z,1013.11
2016-06-09T11:06:40.443Z,1013.1
2016-06-09T11:07:40.493Z,1013.11
2016-06-09T11:08:40.528Z,1013.09
2016-06-09T11:09:40.562Z,1013.07
2016-06-09T11:10:40.612Z,1013.09
2016-06-09T11:11:40.630Z,1013.12
2016-06-09T11:12:40.680Z,1013.1
2016-06-09T11:13:40.714Z,1013.12
2016-06-09T11:14:40.749Z,1013.13
2016-06-09T11:15:40.783Z,1013.15
2016-06-09T11:16:40.817Z,1013.17
2016-06-09T11:17:40.867Z,1013.16
2016-06-09T11:18:40.902Z,1013.17
2016-06-09T11:19:40.936Z,1013.16
2016-06-09T11:20:40.971Z,1013.16
2016-06-09T11:21:41.005Z,1013.15
2016-06-09T11:22:41.055Z,1013.16
2016-06-09T11:23:41.089Z,1013.14
2016-06-09T11:24:41.123Z,1013.14
2016-06-09T11:25:41.173Z,1013.1
2016-06-09T11:26:41.208Z,1013.09
2016-06-09T11:27:41.243Z,1013.09
2016-06-09T11:28:41.276Z,1013.08
2016-06-09T11:29:41.327Z,1013.04
2016-06-09T11:30:41.360Z,1013.08
2016-06-09T11:31:41.394Z,1013.12
2016-06-09T11:32:41.430Z,1013.1
2016-06-09T11:33:41.464Z,1013.1
2016-06-09T11:34:41.513Z,1013.12
2016-06-09T11:35:41.548Z,1013.13
2016-06-09T11:36:42.239Z,1013.12
2016-06-09T11:37:41.632Z,1013.13
2016-06-09T11:38:41.666Z,1013.15
2016-06-09T11:39:41.701Z,1013.1
2016-06-09T11:40:41.736Z,1013.15
2016-06-09T11:41:41.769Z,1013.1
2016-06-09T11:42:41.804Z,1013.11
2016-06-09T11:43:41.854Z,1013.14
2016-06-09T11:44:41.904Z,1013.11
2016-06-09T11:45:41.923Z,1013.12
2016-06-09T11:46:41.957Z,1013.13
2016-06-09T11:47:42.007Z,1013.14
2016-06-09T11:48:42.040Z,1013.12
2016-06-09T11:49:42.075Z,1013.11
2016-06-09T11:50:42.110Z,1013.12
2016-06-09T11:51:42.831Z,1013.11
2016-06-09T11:52:42.194Z,1013.1
2016-06-09T11:53:42.229Z,1013.06
2016-06-09T11:54:42.262Z,1013.07
2016-06-09T11:55:42.313Z,1013.04
2016-06-09T11:56:42.346Z,1013.08
2016-06-09T11:57:42.382Z,1013.05
2016-06-09T11:58:42.416Z,1013.02
2016-06-09T11:59:42.449Z,1013.05
2016-06-09T12:00:42.500Z,1013.05
2016-06-09T12:01:42.534Z,1013.08
2016-06-09T12:02:42.569Z,1013.06
2016-06-09T12:03:42.618Z,1013.08
2016-06-09T12:04:42.653Z,1013.08
2016-06-09T12:05:42.687Z,1013.06
2016-06-09T12:06:43.096Z,1013.05
2016-06-09T12:07:42.755Z,1013.04